createdAt,value
2018-06-28T00:00:27.128Z,0
2018-06-28T00:01:36.924Z,0
2018-06-28T00:02:46.997Z,0
2018-06-28T00:03:57.073Z,0
2018-06-28T00:05:07.154Z,0
2018-06-28T00:06:16.983Z,0
2018-06-28T00:07:27.073Z,0
2018-06-28T00:08:36.895Z,0
2018-06-28T00:09:46.701Z,0
2018-06-28T00:10:56.780Z,0
2018-06-28T00:12:06.593Z,0
2018-06-28T00:13:16.680Z,0
2018-06-28T00:14:26.760Z,0
2018-06-28T00:15:36.884Z,0
2018-06-28T00:16:46.692Z,0
2018-06-28T00:17:56.764Z,0
2018-06-28T00:19:06.580Z,0
2018-06-28T00:20:16.674Z,0
2018-06-28T00:21:26.499Z,0
2018-06-28T00:22:36.615Z,0
2018-06-28T00:23:46.687Z,0
2018-06-28T00:24:56.490Z,0
2018-06-28T00:26:06.286Z,0
2018-06-28T00:27:16.367Z,0
2018-06-28T00:28:26.463Z,0
2018-06-28T00:29:36.546Z,0
2018-06-28T00:30:46.605Z,0
2018-06-28T00:31:56.408Z,0
2018-06-28T00:33:06.481Z,0
2018-06-28T00:34:16.292Z,0
2018-06-28T00:35:25.844Z,0
2018-06-28T00:36:35.942Z,0
2018-06-28T00:37:46.009Z,0
2018-06-28T00:38:55.812Z,0
2018-06-28T00:40:05.899Z,0
2018-06-28T00:41:15.974Z,0
2018-06-28T00:42:25.784Z,0
2018-06-28T00:43:35.870Z,0
2018-06-28T00:44:45.948Z,0
2018-06-28T00:45:56.042Z,0
2018-06-28T00:47:06.123Z,0
2018-06-28T00:48:16.188Z,0
2018-06-28T00:49:26.262Z,0
2018-06-28T00:50:36.100Z,0
2018-06-28T00:51:45.650Z,0
2018-06-28T00:52:55.774Z,0
2018-06-28T00:54:05.856Z,0
2018-06-28T00:55:16.003Z,0
2018-06-28T00:56:25.808Z,0
2018-06-28T00:57:35.927Z,0
2018-06-28T00:58:46.010Z,0
2018-06-28T00:59:56.123Z,0
2018-06-28T01:01:06.207Z,0
2018-06-28T01:02:16.011Z,0
2018-06-28T01:03:26.069Z,0
2018-06-28T01:04:35.896Z,0
2018-06-28T01:05:45.964Z,0
2018-06-28T01:06:56.056Z,0
2018-06-28T01:08:05.608Z,0
2018-06-28T01:09:15.681Z,0
2018-06-28T01:10:25.262Z,0
2018-06-28T01:11:35.076Z,0
2018-06-28T01:12:45.175Z,0
2018-06-28T01:13:55.005Z,0
2018-06-28T01:15:05.068Z,0
2018-06-28T01:16:15.144Z,0
2018-06-28T01:17:25.210Z,0
2018-06-28T01:18:35.061Z,0
2018-06-28T01:19:44.322Z,0
2018-06-28T01:20:54.440Z,0
2018-06-28T01:22:04.500Z,0
2018-06-28T01:23:14.581Z,0
2018-06-28T01:24:24.672Z,0
2018-06-28T01:25:34.742Z,0
2018-06-28T01:26:44.897Z,0
2018-06-28T01:27:54.988Z,0
2018-06-28T01:29:04.831Z,0
2018-06-28T01:30:14.902Z,0
2018-06-28T01:31:24.964Z,0
2018-06-28T01:32:34.783Z,0
2018-06-28T01:33:44.861Z,0
2018-06-28T01:34:54.946Z,0
2018-06-28T01:36:04.754Z,0
2018-06-28T01:37:14.823Z,0
2018-06-28T01:38:24.912Z,0
2018-06-28T01:39:34.992Z,0
2018-06-28T01:40:45.056Z,0
2018-06-28T01:41:55.190Z,0
2018-06-28T01:43:05.254Z,0
2018-06-28T01:44:15.323Z,0
2018-06-28T01:45:25.403Z,0
2018-06-28T01:46:35.475Z,0
2018-06-28T01:47:45.528Z,0
2018-06-28T01:48:55.615Z,0
2018-06-28T01:50:05.709Z,0
2018-06-28T01:51:15.783Z,0
2018-06-28T01:52:25.866Z,0
2018-06-28T01:53:35.954Z,0
2018-06-28T01:54:45.763Z,0
2018-06-28T01:55:55.639Z,0
2018-06-28T01:57:05.447Z,0
2018-06-28T01:58:15.262Z,0
2018-06-28T01:59:25.077Z,0
2018-06-28T02:00:35.155Z,0
2018-06-28T02:01:44.979Z,0
2018-06-28T02:02:54.784Z,0
2018-06-28T02:04:04.600Z,0
2018-06-28T02:05:14.689Z,0
2018-06-28T02:06:24.517Z,0
2018-06-28T02:07:34.578Z,0
2018-06-28T02:08:44.388Z,0
2018-06-28T02:09:54.182Z,0
2018-06-28T02:11:04.245Z,0
2018-06-28T02:12:14.316Z,0
2018-06-28T02:13:24.399Z,0
2018-06-28T02:14:34.203Z,0
2018-06-28T02:15:44.267Z,0
2018-06-28T02:16:54.100Z,0
2018-06-28T02:18:04.185Z,0
2018-06-28T02:19:14.297Z,0
2018-06-28T02:20:24.369Z,0
2018-06-28T02:21:34.188Z,0
2018-06-28T02:22:44.271Z,0
2018-06-28T02:23:54.340Z,0
2018-06-28T02:25:04.201Z,0
2018-06-28T02:26:14.272Z,0
2018-06-28T02:27:23.845Z,0
2018-06-28T02:28:33.929Z,0
2018-06-28T02:29:44.021Z,0
2018-06-28T02:30:54.118Z,0
2018-06-28T02:32:04.185Z,0
2018-06-28T02:33:13.996Z,0
2018-06-28T02:34:23.828Z,0
2018-06-28T02:35:33.904Z,0
2018-06-28T02:36:43.713Z,0
2018-06-28T02:37:53.552Z,0
2018-06-28T02:39:03.633Z,0
2018-06-28T02:40:13.710Z,0
2018-06-28T02:41:23.532Z,0
2018-06-28T02:42:33.624Z,0
2018-06-28T02:43:43.715Z,0
2018-06-28T02:44:53.535Z,0
2018-06-28T02:46:03.426Z,0
2018-06-28T02:47:13.500Z,0
2018-06-28T02:48:23.590Z,0
2018-06-28T02:49:33.652Z,0
2018-06-28T02:50:43.462Z,0
2018-06-28T02:51:53.274Z,0
2018-06-28T02:53:03.365Z,0
2018-06-28T02:54:13.435Z,0
2018-06-28T02:55:23.534Z,0
2018-06-28T02:56:32.832Z,0
2018-06-28T02:57:42.898Z,0
2018-06-28T02:58:53.002Z,0
2018-06-28T03:00:02.830Z,0
2018-06-28T03:01:12.916Z,0
2018-06-28T03:02:22.473Z,0
2018-06-28T03:35:02.576Z,0
2018-06-28T03:36:12.672Z,0
2018-06-28T03:37:22.742Z,0
2018-06-28T03:38:32.548Z,0
2018-06-28T03:39:42.668Z,0
2018-06-28T03:40:52.520Z,0
2018-06-28T03:42:02.327Z,0
2018-06-28T03:43:12.412Z,0
2018-06-28T03:44:22.489Z,0
2018-06-28T03:45:32.306Z,0
2018-06-28T03:46:42.419Z,0
2018-06-28T03:47:52.492Z,0
2018-06-28T03:49:02.579Z,0
2018-06-28T03:50:12.646Z,0
2018-06-28T03:51:22.724Z,0
2018-06-28T03:52:32.588Z,0
2018-06-28T03:53:42.662Z,0
2018-06-28T03:54:52.464Z,0
2018-06-28T03:56:02.537Z,0
2018-06-28T03:57:12.368Z,0
2018-06-28T03:58:22.496Z,0
2018-06-28T03:59:32.574Z,0
2018-06-28T04:00:42.666Z,0
2018-06-28T04:01:52.731Z,0
2018-06-28T04:03:02.000Z,0
2018-06-28T04:04:12.060Z,0
2018-06-28T04:05:22.131Z,0
2018-06-28T04:06:32.070Z,0
2018-06-28T04:07:42.144Z,0
2018-06-28T04:08:51.690Z,0
2018-06-28T04:10:01.771Z,0
2018-06-28T04:11:11.844Z,0
2018-06-28T04:12:21.660Z,0
2018-06-28T04:13:31.721Z,0
2018-06-28T04:14:41.788Z,0
2018-06-28T04:15:51.608Z,0
2018-06-28T04:17:01.691Z,0
2018-06-28T04:18:11.797Z,0
2018-06-28T04:19:21.868Z,0
2018-06-28T04:20:31.948Z,0
2018-06-28T04:21:41.737Z,0
2018-06-28T04:22:51.810Z,5
2018-06-28T04:24:01.621Z,5
2018-06-28T04:25:11.425Z,5
2018-06-28T04:26:21.479Z,5
2018-06-28T04:27:31.755Z,5
2018-06-28T04:28:41.843Z,5
2018-06-28T04:29:51.633Z,0
2018-06-28T04:31:01.691Z,0
2018-06-28T04:32:11.775Z,0
2018-06-28T04:33:22.090Z,5
2018-06-28T04:34:32.164Z,0
2018-06-28T04:35:42.276Z,0
2018-06-28T04:36:52.339Z,5
2018-06-28T04:38:02.426Z,5
2018-06-28T04:39:12.497Z,5
2018-06-28T04:40:22.324Z,5
2018-06-28T04:41:32.408Z,5
2018-06-28T04:42:42.489Z,5
2018-06-28T04:43:52.305Z,5
2018-06-28T04:45:02.365Z,5
2018-06-28T04:46:12.175Z,5
2018-06-28T04:47:21.973Z,5
2018-06-28T04:48:31.775Z,5
2018-06-28T04:49:41.845Z,5
2018-06-28T04:50:51.923Z,5
2018-06-28T04:52:01.468Z,5
2018-06-28T04:53:11.285Z,5
2018-06-28T04:54:21.076Z,5
2018-06-28T04:55:31.162Z,5
2018-06-28T04:56:41.246Z,5
2018-06-28T04:57:51.326Z,5
2018-06-28T04:59:00.926Z,5
2018-06-28T05:00:10.982Z,5
2018-06-28T05:01:21.299Z,5
2018-06-28T05:02:31.439Z,5
2018-06-28T05:03:41.507Z,5
2018-06-28T05:04:51.568Z,5
2018-06-28T05:06:01.646Z,5
2018-06-28T05:07:12.146Z,5
2018-06-28T05:08:22.226Z,5
2018-06-28T05:09:32.048Z,10
2018-06-28T05:10:42.140Z,10
2018-06-28T05:11:52.222Z,10
2018-06-28T05:13:02.033Z,10
2018-06-28T05:14:11.856Z,10
2018-06-28T05:15:21.935Z,10
2018-06-28T05:16:32.010Z,15
2018-06-28T05:17:42.092Z,15
2018-06-28T05:18:52.179Z,20
2018-06-28T05:20:02.263Z,15
2018-06-28T05:21:12.327Z,20
2018-06-28T05:22:22.258Z,25
2018-06-28T05:23:32.589Z,20
2018-06-28T05:24:42.667Z,25
2018-06-28T05:25:52.737Z,20
2018-06-28T05:27:02.801Z,25
2018-06-28T05:28:12.616Z,20
2018-06-28T05:29:22.747Z,20
2018-06-28T05:30:32.560Z,20
2018-06-28T05:31:42.673Z,15
2018-06-28T05:32:52.754Z,20
2018-06-28T05:34:02.841Z,20
2018-06-28T05:35:12.910Z,20
2018-06-28T05:36:23.029Z,20
2018-06-28T05:37:32.856Z,20
2018-06-28T05:38:42.936Z,20
2018-06-28T05:39:53.018Z,25
2018-06-28T05:41:03.079Z,25
2018-06-28T05:42:12.943Z,25
2018-06-28T05:43:23.017Z,25
2018-06-28T05:44:33.103Z,25
2018-06-28T05:45:42.908Z,20
2018-06-28T05:46:52.979Z,15
2018-06-28T05:48:03.027Z,15
2018-06-28T05:49:13.009Z,15
2018-06-28T05:50:23.092Z,15
2018-06-28T05:51:32.919Z,15
2018-06-28T05:52:42.994Z,15
2018-06-28T05:53:53.073Z,15
2018-06-28T05:55:03.156Z,15
2018-06-28T05:56:12.966Z,15
2018-06-28T05:57:23.040Z,15
2018-06-28T05:58:33.113Z,15
2018-06-28T05:59:43.242Z,10
2018-06-28T06:00:53.321Z,10
2018-06-28T06:02:03.378Z,15
2018-06-28T06:03:13.446Z,15
2018-06-28T06:04:23.253Z,15
2018-06-28T06:05:33.384Z,20
2018-06-28T06:06:43.470Z,25
2018-06-28T06:07:53.270Z,30
2018-06-28T06:09:03.351Z,30
2018-06-28T06:10:13.470Z,30
2018-06-28T06:11:23.289Z,30
2018-06-28T06:12:33.363Z,30
2018-06-28T06:13:43.454Z,30
2018-06-28T06:14:53.554Z,30
2018-06-28T06:16:03.652Z,25
2018-06-28T06:17:13.773Z,25
2018-06-28T06:18:23.578Z,30
2018-06-28T06:19:33.648Z,30
2018-06-28T06:20:43.468Z,40
2018-06-28T06:21:53.542Z,50
2018-06-28T06:23:03.722Z,40
2018-06-28T06:24:13.540Z,40
2018-06-28T06:25:23.617Z,35
2018-06-28T06:26:33.689Z,25
2018-06-28T06:27:43.772Z,25
2018-06-28T06:28:53.861Z,25
2018-06-28T06:30:03.671Z,25
2018-06-28T06:31:13.753Z,20
2018-06-28T06:32:23.827Z,25
2018-06-28T06:33:33.970Z,30
2018-06-28T06:34:43.783Z,35
2018-06-28T06:35:53.857Z,35
2018-06-28T06:37:03.719Z,45
2018-06-28T06:38:13.536Z,35
2018-06-28T06:39:23.380Z,35
2018-06-28T06:40:33.198Z,25
2018-06-28T06:41:43.271Z,25
2018-06-28T06:42:53.348Z,25
2018-06-28T06:44:03.447Z,25
2018-06-28T06:45:13.299Z,25
2018-06-28T06:46:23.147Z,30
2018-06-28T06:47:33.228Z,30
2018-06-28T06:48:43.374Z,30
2018-06-28T06:49:53.457Z,40
2018-06-28T06:51:03.529Z,40
2018-06-28T06:52:13.607Z,40
2018-06-28T06:53:23.682Z,35
2018-06-28T06:54:33.487Z,40
2018-06-28T06:55:43.195Z,50
2018-06-28T06:56:53.255Z,55
2018-06-28T06:58:03.070Z,50
2018-06-28T06:59:13.150Z,50
2018-06-28T07:00:23.223Z,55
2018-06-28T07:01:33.213Z,45
2018-06-28T07:02:43.295Z,45
2018-06-28T07:03:53.436Z,40
2018-06-28T07:05:03.518Z,30
2018-06-28T07:06:13.601Z,30
2018-06-28T07:07:23.152Z,30
2018-06-28T07:08:33.250Z,30
2018-06-28T07:09:43.092Z,35
2018-06-28T07:10:52.902Z,40
2018-06-28T07:12:02.989Z,40
2018-06-28T07:13:13.060Z,45
2018-06-28T07:14:22.877Z,45
2018-06-28T07:15:33.009Z,55
2018-06-28T07:16:43.088Z,60
2018-06-28T07:17:53.333Z,50
2018-06-28T07:19:03.408Z,50
2018-06-28T07:20:13.480Z,55
2018-06-28T07:21:23.583Z,75
2018-06-28T07:22:33.652Z,95
2018-06-28T07:23:43.724Z,100
2018-06-28T07:24:53.538Z,95
2018-06-28T07:26:03.623Z,95
2018-06-28T07:27:13.477Z,80
2018-06-28T07:28:23.076Z,105
2018-06-28T07:29:33.160Z,115
2018-06-28T07:30:43.267Z,115
2018-06-28T07:31:53.549Z,100
2018-06-28T07:33:03.789Z,90
2018-06-28T07:34:14.633Z,90
2018-06-28T07:35:24.747Z,80
2018-06-28T07:36:34.563Z,85
2018-06-28T07:37:44.432Z,85
2018-06-28T07:38:54.290Z,70
2018-06-28T07:40:04.357Z,75
2018-06-28T07:41:14.436Z,75
2018-06-28T07:42:24.543Z,80
2018-06-28T07:43:34.379Z,80
2018-06-28T07:44:45.508Z,90
2018-06-28T07:45:55.576Z,100
2018-06-28T07:47:05.889Z,110
2018-06-28T07:48:15.964Z,125
2018-06-28T07:49:26.050Z,125
2018-06-28T07:50:35.874Z,140
2018-06-28T07:51:45.681Z,160
2018-06-28T07:52:55.751Z,145
2018-06-28T07:54:05.806Z,145
2018-06-28T07:55:15.899Z,140
2018-06-28T07:56:25.989Z,130
2018-06-28T07:57:35.808Z,120
2018-06-28T07:58:45.874Z,135
2018-06-28T07:59:55.952Z,145
2018-06-28T08:01:05.778Z,150
2018-06-28T08:02:15.869Z,135
2018-06-28T08:03:25.955Z,130
2018-06-28T08:04:35.877Z,135
2018-06-28T08:05:45.683Z,115
2018-06-28T08:06:55.762Z,125
2018-06-28T08:08:05.843Z,125
2018-06-28T08:09:15.944Z,130
2018-06-28T08:10:26.038Z,130
2018-06-28T08:11:36.118Z,130
2018-06-28T08:12:46.199Z,130
2018-06-28T08:13:56.033Z,135
2018-06-28T08:15:06.127Z,125
2018-06-28T08:16:16.251Z,125
2018-06-28T08:17:26.321Z,110
2018-06-28T08:18:35.874Z,115
2018-06-28T08:19:45.765Z,95
2018-06-28T08:20:55.882Z,120
2018-06-28T08:22:05.978Z,120
2018-06-28T08:23:16.158Z,130
2018-06-28T08:24:26.240Z,145
2018-06-28T08:25:36.317Z,160
2018-06-28T08:26:46.450Z,160
2018-06-28T08:27:56.289Z,150
2018-06-28T08:29:06.376Z,145
2018-06-28T08:30:16.209Z,150
2018-06-28T08:31:26.338Z,140
2018-06-28T08:32:36.439Z,145
2018-06-28T08:33:46.262Z,145
2018-06-28T08:34:56.354Z,150
2018-06-28T08:36:06.885Z,170
2018-06-28T08:37:17.011Z,180
2018-06-28T08:38:27.160Z,170
2018-06-28T08:39:37.266Z,170
2018-06-28T08:40:47.371Z,150
2018-06-28T08:41:57.465Z,170
2018-06-28T08:43:07.559Z,155
2018-06-28T08:44:17.676Z,155
2018-06-28T08:45:27.776Z,130
2018-06-28T08:46:37.614Z,130
2018-06-28T08:47:47.700Z,140
2018-06-28T08:48:57.906Z,135
2018-06-28T08:50:08.058Z,145
2018-06-28T08:51:18.143Z,145
2018-06-28T08:52:28.224Z,130
2018-06-28T08:53:38.049Z,130
2018-06-28T08:54:48.139Z,135
2018-06-28T08:55:58.240Z,130
2018-06-28T08:57:08.335Z,120
2018-06-28T08:58:18.597Z,120
2018-06-28T08:59:28.785Z,115
2018-06-28T09:00:38.860Z,110
2018-06-28T09:01:49.037Z,115
2018-06-28T09:02:58.882Z,125
2018-06-28T09:04:09.100Z,130
2018-06-28T09:05:18.951Z,130
2018-06-28T09:06:29.075Z,150
2018-06-28T09:07:38.640Z,155
2018-06-28T09:08:48.210Z,145
2018-06-28T09:09:58.322Z,135
2018-06-28T09:11:08.425Z,130
2018-06-28T09:12:18.243Z,135
2018-06-28T09:13:28.329Z,150
2018-06-28T09:14:38.404Z,155
2018-06-28T09:15:48.506Z,170
2018-06-28T09:16:58.604Z,160
2018-06-28T09:18:08.723Z,155
2018-06-28T09:19:18.852Z,160
2018-06-28T09:20:28.695Z,155
2018-06-28T09:21:38.791Z,160
2018-06-28T09:22:49.524Z,165
2018-06-28T09:23:59.629Z,165
2018-06-28T09:25:09.753Z,175
2018-06-28T09:26:19.857Z,190
2018-06-28T09:27:31.539Z,195
2018-06-28T09:28:41.876Z,205
2018-06-28T09:29:51.967Z,225
2018-06-28T09:31:01.335Z,225
2018-06-28T09:32:11.432Z,220
2018-06-28T09:33:21.517Z,240
2018-06-28T09:34:31.071Z,265
2018-06-28T09:35:40.901Z,255
2018-06-28T09:36:51.082Z,240
2018-06-28T09:38:01.594Z,235
2018-06-28T09:39:11.967Z,230
2018-06-28T09:40:21.812Z,235
2018-06-28T09:41:31.680Z,240
2018-06-28T09:42:41.295Z,230
2018-06-28T09:43:51.381Z,200
2018-06-28T09:45:01.479Z,195
2018-06-28T09:46:11.306Z,170
2018-06-28T09:47:21.144Z,150
2018-06-28T09:48:31.323Z,135
2018-06-28T09:49:41.423Z,125
2018-06-28T09:50:51.260Z,135
2018-06-28T09:52:01.355Z,155
2018-06-28T09:53:11.182Z,175
2018-06-28T09:54:21.063Z,180
2018-06-28T09:55:31.160Z,180
2018-06-28T09:56:41.270Z,205
2018-06-28T09:57:51.831Z,245
2018-06-28T09:59:01.910Z,265
2018-06-28T10:00:12.074Z,225
2018-06-28T10:01:22.174Z,220
2018-06-28T10:02:32.294Z,235
2018-06-28T10:03:42.397Z,275
2018-06-28T10:04:52.491Z,295
2018-06-28T10:06:02.631Z,290
2018-06-28T10:07:12.727Z,275
2018-06-28T10:08:22.840Z,295
2018-06-28T10:09:32.947Z,285
2018-06-28T10:10:43.047Z,270
2018-06-28T10:11:52.883Z,265
2018-06-28T10:13:02.724Z,270
2018-06-28T10:14:12.850Z,285
2018-06-28T10:15:22.966Z,300
2018-06-28T10:16:32.834Z,325
2018-06-28T10:17:42.935Z,350
2018-06-28T10:18:52.797Z,370
2018-06-28T10:20:02.909Z,365
2018-06-28T10:21:13.010Z,355
2018-06-28T10:22:23.117Z,335
2018-06-28T10:23:33.206Z,310
2018-06-28T10:24:43.623Z,320
2018-06-28T10:25:53.752Z,335
2018-06-28T10:27:03.846Z,390
2018-06-28T10:28:13.671Z,405
2018-06-28T10:29:23.769Z,400
2018-06-28T10:30:33.888Z,400
2018-06-28T10:31:43.983Z,375
2018-06-28T10:32:54.436Z,365
2018-06-28T10:34:04.590Z,330
2018-06-28T10:35:14.917Z,305
2018-06-28T10:36:25.007Z,295
2018-06-28T10:37:34.843Z,305
2018-06-28T10:38:44.945Z,315
2018-06-28T10:39:54.769Z,315
2018-06-28T10:41:05.245Z,305
2018-06-28T10:42:15.065Z,280
2018-06-28T10:43:24.900Z,265
2018-06-28T10:44:34.763Z,260
2018-06-28T10:45:44.900Z,270
2018-06-28T10:46:55.044Z,270
2018-06-28T10:48:05.215Z,270
2018-06-28T10:49:15.360Z,285
2018-06-28T10:50:25.576Z,305
2018-06-28T10:51:35.676Z,320
2018-06-28T10:52:45.766Z,335
2018-06-28T10:53:55.661Z,345
2018-06-28T10:55:05.496Z,355
2018-06-28T10:56:15.628Z,340
2018-06-28T10:57:25.731Z,335
2018-06-28T10:58:35.825Z,325
2018-06-28T10:59:45.929Z,325
2018-06-28T11:00:56.024Z,325
2018-06-28T11:02:06.099Z,345
2018-06-28T11:03:15.939Z,350
2018-06-28T11:04:26.025Z,365
2018-06-28T11:05:36.125Z,360
2018-06-28T11:06:45.957Z,345
2018-06-28T11:07:55.762Z,340
2018-06-28T11:09:05.859Z,335
2018-06-28T11:10:15.943Z,325
2018-06-28T11:11:26.092Z,315
2018-06-28T11:12:36.683Z,305
2018-06-28T11:13:46.518Z,300
2018-06-28T11:14:56.375Z,295
2018-06-28T11:16:06.491Z,295
2018-06-28T11:17:16.604Z,310
2018-06-28T11:18:26.490Z,315
2018-06-28T11:19:36.603Z,305
2018-06-28T11:20:46.499Z,300
2018-06-28T11:21:56.581Z,305
2018-06-28T11:23:06.679Z,325
2018-06-28T11:24:16.792Z,350
2018-06-28T11:25:26.894Z,355
2018-06-28T11:26:37.192Z,340
2018-06-28T11:27:47.333Z,320
2018-06-28T11:28:57.154Z,310
2018-06-28T11:30:06.732Z,305
2018-06-28T11:31:16.812Z,305
2018-06-28T11:32:26.673Z,300
2018-06-28T11:33:36.525Z,300
2018-06-28T11:34:46.648Z,285
2018-06-28T11:35:56.745Z,290
2018-06-28T11:37:06.601Z,295
2018-06-28T11:38:16.740Z,305
2018-06-28T11:39:26.830Z,325
2018-06-28T11:40:36.930Z,325
2018-06-28T11:41:47.324Z,330
2018-06-28T11:42:57.407Z,340
2018-06-28T11:44:07.563Z,335
2018-06-28T11:45:17.388Z,330
2018-06-28T11:46:27.485Z,330
2018-06-28T11:47:37.558Z,325
2018-06-28T11:48:47.645Z,310
2018-06-28T11:49:57.796Z,300
2018-06-28T11:51:08.112Z,285
2018-06-28T11:52:18.535Z,285
2018-06-28T11:53:28.639Z,290
2018-06-28T11:54:38.729Z,290
2018-06-28T11:55:48.991Z,305
2018-06-28T11:56:59.113Z,310
2018-06-28T11:58:09.210Z,310
2018-06-28T11:59:19.321Z,315
2018-06-28T12:00:29.239Z,320
2018-06-28T12:01:39.068Z,315
2018-06-28T12:02:49.159Z,315
2018-06-28T12:03:59.247Z,310
2018-06-28T12:05:09.074Z,305
2018-06-28T12:06:19.185Z,305
2018-06-28T12:07:29.010Z,295
2018-06-28T12:08:39.083Z,285
2018-06-28T12:09:49.184Z,285
2018-06-28T12:10:59.282Z,295
2018-06-28T12:12:09.390Z,300
2018-06-28T12:13:19.465Z,295
2018-06-28T12:14:29.027Z,300
2018-06-28T12:15:39.133Z,285
2018-06-28T12:16:49.234Z,270
2018-06-28T12:17:59.348Z,260
2018-06-28T12:19:09.434Z,250
2018-06-28T12:20:19.253Z,250
2018-06-28T12:21:29.342Z,265
2018-06-28T12:22:39.589Z,235
2018-06-28T12:23:49.671Z,230
2018-06-28T12:24:59.514Z,245
2018-06-28T12:26:09.344Z,235
2018-06-28T12:27:19.183Z,220
2018-06-28T12:28:29.013Z,210
2018-06-28T12:29:39.128Z,200
2018-06-28T12:30:49.230Z,205
2018-06-28T12:31:59.350Z,220
2018-06-28T12:33:09.439Z,240
2018-06-28T12:34:19.263Z,255
2018-06-28T12:35:28.818Z,260
2018-06-28T12:36:38.910Z,260
2018-06-28T12:37:48.734Z,255
2018-06-28T12:38:58.823Z,255
2018-06-28T12:40:08.695Z,260
2018-06-28T12:41:18.780Z,265
2018-06-28T12:42:28.864Z,260
2018-06-28T12:43:38.437Z,265
2018-06-28T12:44:48.524Z,290
2018-06-28T12:45:58.354Z,295
2018-06-28T12:47:08.460Z,300
2018-06-28T12:48:18.550Z,320
2018-06-28T12:49:28.122Z,320
2018-06-28T12:50:37.945Z,310
2018-06-28T12:51:48.057Z,305
2018-06-28T12:52:58.155Z,290
2018-06-28T12:54:08.339Z,290
2018-06-28T12:55:18.467Z,285
2018-06-28T12:56:28.561Z,275
2018-06-28T12:57:38.646Z,270
2018-06-28T12:58:48.733Z,255
2018-06-28T12:59:59.302Z,250
2018-06-28T13:01:09.500Z,245
2018-06-28T13:02:19.611Z,250
2018-06-28T13:03:29.175Z,235
2018-06-28T13:04:39.258Z,230
2018-06-28T13:05:49.361Z,230
2018-06-28T13:06:59.441Z,215
2018-06-28T13:08:09.539Z,185
2018-06-28T13:09:19.614Z,170
2018-06-28T13:10:29.711Z,170
2018-06-28T13:11:39.268Z,175
2018-06-28T13:12:49.688Z,185
2018-06-28T13:13:59.795Z,185
2018-06-28T13:15:09.369Z,190
2018-06-28T13:16:19.195Z,185
2018-06-28T13:17:29.317Z,185
2018-06-28T13:18:39.470Z,190
2018-06-28T13:19:49.627Z,185
2018-06-28T13:20:59.454Z,270
2018-06-28T13:22:09.581Z,255
2018-06-28T13:23:19.674Z,255
2018-06-28T13:24:29.790Z,260
2018-06-28T13:25:39.889Z,240
2018-06-28T13:26:49.968Z,240
2018-06-28T13:28:00.058Z,225
2018-06-28T13:29:10.174Z,225
2018-06-28T13:30:20.261Z,250
2018-06-28T13:31:30.398Z,250
2018-06-28T13:32:40.200Z,285
2018-06-28T13:33:50.101Z,300
2018-06-28T13:35:00.260Z,315
2018-06-28T13:36:10.365Z,270
2018-06-28T13:37:20.441Z,275
2018-06-28T13:38:30.521Z,265
2018-06-28T13:39:40.831Z,265
2018-06-28T13:40:51.780Z,260
2018-06-28T13:42:02.061Z,265
2018-06-28T13:43:12.234Z,270
2018-06-28T13:44:22.327Z,305
2018-06-28T13:45:32.168Z,225
2018-06-28T13:46:41.989Z,220
2018-06-28T13:47:52.078Z,220
2018-06-28T13:49:02.220Z,225
2018-06-28T13:50:11.771Z,230
2018-06-28T13:51:21.911Z,230
2018-06-28T13:52:32.012Z,225
2018-06-28T13:53:42.100Z,225
2018-06-28T13:54:52.185Z,220
2018-06-28T13:56:02.011Z,245
2018-06-28T13:57:12.164Z,210
2018-06-28T13:58:22.280Z,265
2018-06-28T13:59:32.372Z,200
2018-06-28T14:00:42.454Z,180
2018-06-28T14:01:52.545Z,185
2018-06-28T14:03:02.823Z,255
2018-06-28T14:04:13.016Z,260
2018-06-28T14:05:22.826Z,270
2018-06-28T14:06:32.657Z,235
2018-06-28T14:07:42.748Z,230
2018-06-28T14:08:52.907Z,255
2018-06-28T14:10:02.993Z,260
2018-06-28T14:11:13.078Z,225
2018-06-28T14:12:22.920Z,225
2018-06-28T14:13:32.996Z,235
2018-06-28T14:14:43.143Z,225
2018-06-28T14:15:53.255Z,210
2018-06-28T14:17:03.362Z,245
2018-06-28T14:18:13.191Z,230
2018-06-28T14:19:23.032Z,230
2018-06-28T14:20:33.493Z,240
2018-06-28T14:21:43.661Z,275
2018-06-28T14:22:53.494Z,310
2018-06-28T14:24:03.599Z,305
2018-06-28T14:25:13.704Z,285
2018-06-28T14:26:23.805Z,270
2018-06-28T14:27:33.924Z,260
2018-06-28T14:28:44.036Z,255
2018-06-28T14:29:54.118Z,250
2018-06-28T14:31:04.216Z,250
2018-06-28T14:32:14.049Z,250
2018-06-28T14:33:24.148Z,250
2018-06-28T14:34:34.244Z,260
2018-06-28T14:35:44.327Z,215
2018-06-28T14:36:54.151Z,220
2018-06-28T14:38:04.254Z,265
2018-06-28T14:39:14.099Z,270
2018-06-28T14:40:24.174Z,280
2018-06-28T14:41:34.330Z,295
2018-06-28T14:42:44.494Z,315
2018-06-28T14:43:54.614Z,325
2018-06-28T14:45:05.215Z,340
2018-06-28T14:46:15.319Z,320
2018-06-28T14:47:25.567Z,315
2018-06-28T14:48:35.688Z,290
2018-06-28T14:49:45.830Z,240
2018-06-28T14:50:55.935Z,230
2018-06-28T14:52:06.014Z,250
2018-06-28T14:53:16.544Z,225
2018-06-28T14:54:26.651Z,175
2018-06-28T14:55:36.805Z,140
2018-06-28T14:56:46.903Z,125
2018-06-28T14:57:56.735Z,120
2018-06-28T14:59:06.822Z,115
2018-06-28T15:00:16.942Z,115
2018-06-28T15:01:27.046Z,115
2018-06-28T15:02:36.882Z,115
2018-06-28T15:03:46.978Z,110
2018-06-28T15:04:56.836Z,105
2018-06-28T15:06:06.956Z,105
2018-06-28T15:07:17.113Z,105
2018-06-28T15:08:26.931Z,105
2018-06-28T15:09:36.965Z,110
2018-06-28T15:10:46.490Z,115
2018-06-28T15:11:56.612Z,115
2018-06-28T15:13:06.705Z,115
2018-06-28T15:14:16.792Z,115
2018-06-28T15:15:27.173Z,120
2018-06-28T15:16:37.277Z,120
2018-06-28T15:17:46.858Z,120
2018-06-28T15:18:56.945Z,115
2018-06-28T15:20:07.040Z,110
2018-06-28T15:21:16.920Z,110
2018-06-28T15:22:27.020Z,110
2018-06-28T15:23:37.120Z,110
2018-06-28T15:24:47.257Z,115
2018-06-28T15:25:57.345Z,125
2018-06-28T15:27:07.187Z,130
2018-06-28T15:28:17.293Z,130
2018-06-28T15:29:27.407Z,130
2018-06-28T15:30:37.594Z,120
2018-06-28T15:31:47.698Z,105
2018-06-28T15:32:57.556Z,90
2018-06-28T15:34:07.710Z,65
2018-06-28T15:35:17.825Z,45
2018-06-28T15:36:27.676Z,35
2018-06-28T15:37:37.776Z,25
2018-06-28T15:38:48.309Z,20
2018-06-28T15:39:58.144Z,20
2018-06-28T15:41:07.728Z,20
2018-06-28T15:42:17.885Z,20
2018-06-28T15:43:27.999Z,20
2018-06-28T15:44:38.098Z,20
2018-06-28T15:45:48.429Z,25
2018-06-28T15:46:58.635Z,20
2018-06-28T15:48:08.735Z,25
2018-06-28T15:49:18.573Z,30
2018-06-28T15:50:28.425Z,35
2018-06-28T15:51:38.522Z,40
2018-06-28T15:52:48.598Z,45
2018-06-28T15:53:58.706Z,45
2018-06-28T15:55:08.786Z,50
2018-06-28T15:56:18.890Z,50
2018-06-28T15:57:28.805Z,50
2018-06-28T15:58:38.920Z,50
2018-06-28T15:59:48.790Z,50
2018-06-28T16:00:58.631Z,50
2018-06-28T16:02:08.743Z,50
2018-06-28T16:03:18.819Z,50
2018-06-28T16:04:28.655Z,50
2018-06-28T16:05:38.807Z,55
2018-06-28T16:06:48.904Z,65
2018-06-28T16:07:58.990Z,70
2018-06-28T16:09:09.089Z,70
2018-06-28T16:10:19.174Z,65
2018-06-28T16:11:29.040Z,60
2018-06-28T16:12:39.327Z,60
2018-06-28T16:13:49.446Z,70
2018-06-28T16:14:59.269Z,80
2018-06-28T16:16:09.112Z,75
2018-06-28T16:17:19.013Z,65
2018-06-28T16:18:29.103Z,65
2018-06-28T16:19:38.930Z,60
2018-06-28T16:20:48.993Z,60
2018-06-28T16:21:58.827Z,55
2018-06-28T16:23:08.644Z,55
2018-06-28T16:24:18.479Z,40
2018-06-28T16:25:28.315Z,40
2018-06-28T16:26:38.158Z,40
2018-06-28T16:27:48.271Z,35
2018-06-28T16:28:58.208Z,35
2018-06-28T16:30:08.018Z,40
2018-06-28T16:31:18.075Z,45
2018-06-28T16:32:28.179Z,40
2018-06-28T16:33:38.329Z,50
2018-06-28T16:34:48.429Z,60
2018-06-28T16:35:58.267Z,70
2018-06-28T16:37:08.403Z,75
2018-06-28T16:38:18.492Z,80
2018-06-28T16:39:28.777Z,90
2018-06-28T16:40:38.980Z,90
2018-06-28T16:41:49.089Z,100
2018-06-28T16:42:58.928Z,110
2018-06-28T16:44:08.749Z,110
2018-06-28T16:45:18.308Z,120
2018-06-28T16:46:28.489Z,125
2018-06-28T16:47:38.602Z,120
2018-06-28T16:48:48.704Z,105
2018-06-28T16:49:58.796Z,95
2018-06-28T16:51:08.626Z,95
2018-06-28T16:52:18.774Z,90
2018-06-28T16:53:28.880Z,85
2018-06-28T16:54:38.966Z,85
2018-06-28T16:55:49.296Z,85
2018-06-28T16:56:59.375Z,85
2018-06-28T16:58:09.264Z,80
2018-06-28T16:59:19.387Z,80
2018-06-28T17:00:29.539Z,75
2018-06-28T17:01:39.390Z,70
2018-06-28T17:02:49.241Z,60